TimeAKST,TemperatureF,Dew PointF,Humidity,Sea Level PressureIn,VisibilityMPH,Wind Direction,Wind SpeedMPH,Gust SpeedMPH,PrecipitationIn,Events,Conditions,WindDirDegrees,DateUTC
12:53 AM,37.0,30.0,76,29.34,10.0,North,13.8,-,0.05,,Overcast,350,2013-01-08 09:53:00
1:53 AM,36.0,30.9,82,29.37,10.0,North,10.4,-,0.03,,Overcast,360,2013-01-08 10:53:00
3:53 AM,36.0,30.0,79,29.42,10.0,North,9.2,-,0.01,,Overcast,10,2013-01-08 12:53:00
4:53 AM,36.0,30.9,82,29.45,10.0,North,-9999.0,-,0.01,,Overcast,0,2013-01-08 13:53:00
5:53 AM,35.1,30.0,82,29.47,10.0,NNE,8.1,-,0.01,,Overcast,30,2013-01-08 14:53:00
6:53 AM,35.1,30.9,85,29.50,10.0,NNE,9.2,-,0.01,,Overcast,20,2013-01-08 15:53:00
7:53 AM,34.0,30.0,85,29.53,9.0,NNE,10.4,-,0.01,,Overcast,20,2013-01-08 16:53:00
8:53 AM,34.0,28.9,82,29.56,10.0,North,15.0,23.0,N/A,,Overcast,10,2013-01-08 17:53:00
9:53 AM,33.1,27.0,78,29.60,7.0,North,19.6,24.2,0.00,Snow,Light Snow,360,2013-01-08 18:53:00
10:53 AM,32.0,25.0,75,29.62,10.0,North,17.3,24.2,0.00,,Overcast,360,2013-01-08 19:53:00
11:53 AM,32.0,25.0,75,29.65,10.0,North,24.2,34.5,N/A,,Partly Cloudy,360,2013-01-08 20:53:00
12:53 PM,33.1,24.1,70,29.68,10.0,North,18.4,28.8,0.01,,Mostly Cloudy,360,2013-01-08 21:53:00
1:53 PM,33.1,25.0,72,29.71,10.0,North,18.4,25.3,N/A,,Mostly Cloudy,350,2013-01-08 22:53:00
2:53 PM,34.0,24.1,67,29.73,10.0,NNW,16.1,23.0,N/A,,Mostly Cloudy,340,2013-01-08 23:53:00
3:53 PM,34.0,21.9,61,29.75,10.0,North,16.1,23.0,N/A,,Overcast,360,2013-01-09 00:53:00
4:53 PM,33.1,21.0,61,29.78,10.0,North,17.3,23.0,N/A,,Clear,360,2013-01-09 01:53:00
5:53 PM,33.1,21.0,61,29.80,10.0,North,15.0,27.6,N/A,,Clear,360,2013-01-09 02:53:00
6:53 PM,32.0,21.0,64,29.84,10.0,NNE,10.4,17.3,N/A,,Clear,30,2013-01-09 03:53:00
7:53 PM,33.1,21.0,61,29.86,10.0,NNE,13.8,20.7,N/A,,Clear,30,2013-01-09 04:53:00
8:53 PM,33.1,21.0,61,29.89,10.0,NNE,11.5,-,N/A,,Clear,30,2013-01-09 05:53:00
9:53 PM,33.1,21.0,61,29.90,10.0,North,13.8,20.7,N/A,,Clear,10,2013-01-09 06:53:00
10:53 PM,30.9,21.9,69,29.92,10.0,NNE,11.5,-,N/A,,Clear,30,2013-01-09 07:53:00
11:53 PM,30.0,21.0,69,29.93,10.0,NNE,11.5,23.0,N/A,,Clear,30,2013-01-09 08:53:00